Pagrindinis puslapis
METAR-TAF:

METAR-TAF

Oro uostai :

Mason Jewett Field

Mason, Mičiganas, Jungtinės Amerikos Valstijos

platuma: 42-33-57N, ilguma: 084-25-24W, Aukštis: 280 m

Dabartinis oras

Ataskaita buvo paskelbta 26 minutes, ne 11:35 UTC
Ramus vėjas
Temperatūra 1°C
Drėgmė 93%
Slėgis 1008 hPa
Matomumas: 8.0 km
Išsisklaidę debesys ne aukštis 400 ft
Apsiniaukę ne aukštis 1300 ft
lietus

METAR: KTEW 251135Z AUTO 00000KT 5SM -RA SCT004 OVC013 01/00 A2978 RMK AO2 T00050001

Laikas: 07:01 (12:01 UTC)


TAF: trūkstamas

Orai ataskaitas ir orų prognozės (METAR, TAF).

turimą stotys yra geltonos ir raudonos taškus žemėlapyje.

Perkelti pele per norėdami pamatyti stoties vardą.

Tada spustelėkite, norėdami matyti oro stebėjimo ir prognozės.

Norėdami pakeisti žemėlapį: spustelėkite ant žalios mygtukų su juodo kryžiaus žemyn,; žalią mygtuką su brūkšneliu, jei norite nutolinti; arba žalių rodyklių gretimoms žemėlapius.


METAR-TAF: